sensor_id;sensor_type;location;lat;lon;timestamp;pressure;altitude;pressure_sealevel;temperature;humidity
70198;BME280;57582;-34.876;138.628;2023-08-06T00:02:54;103038;;;12.69;55.29
70198;BME280;57582;-34.876;138.628;2023-08-06T00:05:53;103040;;;12.24;55.57
70198;BME280;57582;-34.876;138.628;2023-08-06T00:08:53;103034;;;11.92;56.67
70198;BME280;57582;-34.876;138.628;2023-08-06T00:11:53;103031;;;11.94;57.43
70198;BME280;57582;-34.876;138.628;2023-08-06T00:14:53;103030;;;12.06;57.74
70198;BME280;57582;-34.876;138.628;2023-08-06T00:17:53;103031;;;12.28;57.26
70198;BME280;57582;-34.876;138.628;2023-08-06T00:20:53;103037;;;12.51;56.09
70198;BME280;57582;-34.876;138.628;2023-08-06T00:23:53;103041;;;12.47;56.61
70198;BME280;57582;-34.876;138.628;2023-08-06T00:26:53;103043;;;12.89;55.19
70198;BME280;57582;-34.876;138.628;2023-08-06T00:29:53;103053;;;13.47;56.88
70198;BME280;57582;-34.876;138.628;2023-08-06T00:32:53;103060;;;13.79;53.10
70198;BME280;57582;-34.876;138.628;2023-08-06T00:35:53;103059;;;13.24;53.84
70198;BME280;57582;-34.876;138.628;2023-08-06T00:38:53;103061;;;13.02;53.76
70198;BME280;57582;-34.876;138.628;2023-08-06T00:41:53;103053;;;13.27;54.78
70198;BME280;57582;-34.876;138.628;2023-08-06T00:44:53;103053;;;13.55;54.00
70198;BME280;57582;-34.876;138.628;2023-08-06T00:47:53;103045;;;13.58;52.30
70198;BME280;57582;-34.876;138.628;2023-08-06T00:50:54;103045;;;13.38;53.54
70198;BME280;57582;-34.876;138.628;2023-08-06T00:53:53;103046;;;13.20;53.58
70198;BME280;57582;-34.876;138.628;2023-08-06T00:56:53;103048;;;13.49;56.64
70198;BME280;57582;-34.876;138.628;2023-08-06T00:59:53;103046;;;13.34;53.43
70198;BME280;57582;-34.876;138.628;2023-08-06T01:02:54;103038;;;13.54;53.14
70198;BME280;57582;-34.876;138.628;2023-08-06T01:05:53;103028;;;13.82;53.04
70198;BME280;57582;-34.876;138.628;2023-08-06T01:08:56;103015;;;13.98;51.76
70198;BME280;57582;-34.876;138.628;2023-08-06T01:11:56;103021;;;14.07;51.57
70198;BME280;57582;-34.876;138.628;2023-08-06T01:14:57;103036;;;13.50;52.91
70198;BME280;57582;-34.876;138.628;2023-08-06T01:17:53;103029;;;14.18;53.31
70198;BME280;57582;-34.876;138.628;2023-08-06T01:20:53;103019;;;14.64;51.73
70198;BME280;57582;-34.876;138.628;2023-08-06T01:23:53;103022;;;14.84;51.59
70198;BME280;57582;-34.876;138.628;2023-08-06T01:26:57;103016;;;14.10;51.68
70198;BME280;57582;-34.876;138.628;2023-08-06T01:29:56;102998;;;14.46;51.54
70198;BME280;57582;-34.876;138.628;2023-08-06T01:32:54;102998;;;13.80;52.53
70198;BME280;57582;-34.876;138.628;2023-08-06T01:35:53;102976;;;14.19;52.71
70198;BME280;57582;-34.876;138.628;2023-08-06T01:38:54;102970;;;14.08;51.38
70198;BME280;57582;-34.876;138.628;2023-08-06T01:41:53;102971;;;14.22;51.72
70198;BME280;57582;-34.876;138.628;2023-08-06T01:44:53;102964;;;14.23;52.92
70198;BME280;57582;-34.876;138.628;2023-08-06T01:47:53;102961;;;14.78;51.00
70198;BME280;57582;-34.876;138.628;2023-08-06T01:50:54;102958;;;14.99;49.52
70198;BME280;57582;-34.876;138.628;2023-08-06T01:53:53;102947;;;15.26;49.45
70198;BME280;57582;-34.876;138.628;2023-08-06T01:56:53;102944;;;15.46;49.25
70198;BME280;57582;-34.876;138.628;2023-08-06T01:59:53;102935;;;14.75;50.11
70198;BME280;57582;-34.876;138.628;2023-08-06T02:02:54;102939;;;14.29;50.52
70198;BME280;57582;-34.876;138.628;2023-08-06T02:05:53;102931;;;14.46;50.81
70198;BME280;57582;-34.876;138.628;2023-08-06T02:08:53;102945;;;14.30;50.05
70198;BME280;57582;-34.876;138.628;2023-08-06T02:11:53;102935;;;14.40;51.80
70198;BME280;57582;-34.876;138.628;2023-08-06T02:14:54;102936;;;14.91;51.33
70198;BME280;57582;-34.876;138.628;2023-08-06T02:17:53;102922;;;15.42;49.26
70198;BME280;57582;-34.876;138.628;2023-08-06T02:20:55;102926;;;15.81;48.69
70198;BME280;57582;-34.876;138.628;2023-08-06T02:23:53;102935;;;16.16;47.80
70198;BME280;57582;-34.876;138.628;2023-08-06T02:26:54;102925;;;16.47;46.37
70198;BME280;57582;-34.876;138.628;2023-08-06T02:29:53;102928;;;16.58;45.78
70198;BME280;57582;-34.876;138.628;2023-08-06T02:32:53;102920;;;16.64;45.90
70198;BME280;57582;-34.876;138.628;2023-08-06T02:36:01;102917;;;15.89;47.26
70198;BME280;57582;-34.876;138.628;2023-08-06T02:38:54;102904;;;15.40;47.70
70198;BME280;57582;-34.876;138.628;2023-08-06T02:41:53;102896;;;15.95;48.74
70198;BME280;57582;-34.876;138.628;2023-08-06T02:44:53;102895;;;16.42;46.79
70198;BME280;57582;-34.876;138.628;2023-08-06T02:47:53;102877;;;16.04;45.80
70198;BME280;57582;-34.876;138.628;2023-08-06T02:50:56;102862;;;15.65;48.14
70198;BME280;57582;-34.876;138.628;2023-08-06T02:53:53;102861;;;16.02;48.60
70198;BME280;57582;-34.876;138.628;2023-08-06T02:56:53;102870;;;15.98;48.29
70198;BME280;57582;-34.876;138.628;2023-08-06T02:59:53;102860;;;16.29;47.13
70198;BME280;57582;-34.876;138.628;2023-08-06T03:02:54;102856;;;16.66;46.34
70198;BME280;57582;-34.876;138.628;2023-08-06T03:05:53;102850;;;16.80;44.93
70198;BME280;57582;-34.876;138.628;2023-08-06T03:08:53;102848;;;17.01;45.46
70198;BME280;57582;-34.876;138.628;2023-08-06T03:11:53;102844;;;16.87;45.01
70198;BME280;57582;-34.876;138.628;2023-08-06T03:14:54;102845;;;16.91;45.82
70198;BME280;57582;-34.876;138.628;2023-08-06T03:17:55;102837;;;16.53;45.58
70198;BME280;57582;-34.876;138.628;2023-08-06T03:20:53;102828;;;15.88;46.85
70198;BME280;57582;-34.876;138.628;2023-08-06T03:23:53;102823;;;15.85;48.05
70198;BME280;57582;-34.876;138.628;2023-08-06T03:26:54;102830;;;16.13;48.78
70198;BME280;57582;-34.876;138.628;2023-08-06T03:29:53;102819;;;16.34;47.15
70198;BME280;57582;-34.876;138.628;2023-08-06T03:32:53;102814;;;16.52;46.45
70198;BME280;57582;-34.876;138.628;2023-08-06T03:35:53;102804;;;16.72;45.94
70198;BME280;57582;-34.876;138.628;2023-08-06T03:38:54;102793;;;16.66;45.23
70198;BME280;57582;-34.876;138.628;2023-08-06T03:41:53;102794;;;16.93;45.33
70198;BME280;57582;-34.876;138.628;2023-08-06T03:44:53;102793;;;17.12;44.93
70198;BME280;57582;-34.876;138.628;2023-08-06T03:47:53;102777;;;17.23;43.08
70198;BME280;57582;-34.876;138.628;2023-08-06T03:50:54;102781;;;17.09;44.14
70198;BME280;57582;-34.876;138.628;2023-08-06T03:53:53;102782;;;16.91;43.83
70198;BME280;57582;-34.876;138.628;2023-08-06T03:56:53;102782;;;16.30;44.08
70198;BME280;57582;-34.876;138.628;2023-08-06T03:59:53;102787;;;15.94;45.71
70198;BME280;57582;-34.876;138.628;2023-08-06T04:02:54;102783;;;16.42;46.18
70198;BME280;57582;-34.876;138.628;2023-08-06T04:05:54;102776;;;16.97;44.78
70198;BME280;57582;-34.876;138.628;2023-08-06T04:08:53;102761;;;17.46;42.99
70198;BME280;57582;-34.876;138.628;2023-08-06T04:20:54;102760;;;17.97;43.11
70198;BME280;57582;-34.876;138.628;2023-08-06T04:23:53;102754;;;18.19;42.39
70198;BME280;57582;-34.876;138.628;2023-08-06T04:26:53;102755;;;18.52;41.47
70198;BME280;57582;-34.876;138.628;2023-08-06T04:29:53;102758;;;18.54;42.20
70198;BME280;57582;-34.876;138.628;2023-08-06T04:32:54;102757;;;18.43;42.78
70198;BME280;57582;-34.876;138.628;2023-08-06T04:35:54;102757;;;18.42;43.73
70198;BME280;57582;-34.876;138.628;2023-08-06T04:38:53;102760;;;18.05;44.14
70198;BME280;57582;-34.876;138.628;2023-08-06T04:41:54;102754;;;18.06;44.22
70198;BME280;57582;-34.876;138.628;2023-08-06T04:44:54;102756;;;17.98;44.38
70198;BME280;57582;-34.876;138.628;2023-08-06T04:47:53;102758;;;18.04;44.25
70198;BME280;57582;-34.876;138.628;2023-08-06T04:50:53;102770;;;17.96;44.63
70198;BME280;57582;-34.876;138.628;2023-08-06T04:53:53;102771;;;17.69;45.36
70198;BME280;57582;-34.876;138.628;2023-08-06T04:56:54;102752;;;17.76;45.50
70198;BME280;57582;-34.876;138.628;2023-08-06T04:59:53;102768;;;17.66;45.50
70198;BME280;57582;-34.876;138.628;2023-08-06T05:02:53;102769;;;17.44;45.78
70198;BME280;57582;-34.876;138.628;2023-08-06T05:05:53;102759;;;17.12;46.69
70198;BME280;57582;-34.876;138.628;2023-08-06T05:17:54;102756;;;17.15;47.34
70198;BME280;57582;-34.876;138.628;2023-08-06T05:21:19;0;;;unavailable;unavailable
70198;BME280;57582;-34.876;138.628;2023-08-06T05:23:54;102744;;;17.07;47.80
70198;BME280;57582;-34.876;138.628;2023-08-06T05:31:33;102712;;;16.71;48.38
70198;BME280;57582;-34.876;138.628;2023-08-06T05:34:01;102748;;;16.77;48.54
70198;BME280;57582;-34.876;138.628;2023-08-06T05:37:01;102738;;;16.81;48.67
70198;BME280;57582;-34.876;138.628;2023-08-06T05:40:01;102730;;;16.92;48.45
70198;BME280;57582;-34.876;138.628;2023-08-06T05:43:02;102742;;;16.96;48.42
70198;BME280;57582;-34.876;138.628;2023-08-06T05:46:01;102735;;;16.87;48.38
70198;BME280;57582;-34.876;138.628;2023-08-06T05:49:01;102731;;;16.74;48.45
70198;BME280;57582;-34.876;138.628;2023-08-06T05:52:01;102737;;;16.32;49.35
70198;BME280;57582;-34.876;138.628;2023-08-06T05:55:02;102734;;;15.95;50.39
70198;BME280;57582;-34.876;138.628;2023-08-06T05:58:01;102738;;;16.10;51.09
70198;BME280;57582;-34.876;138.628;2023-08-06T06:01:01;102734;;;16.16;50.65
70198;BME280;57582;-34.876;138.628;2023-08-06T06:04:01;102743;;;16.26;50.41
70198;BME280;57582;-34.876;138.628;2023-08-06T06:07:02;102735;;;16.61;50.96
70198;BME280;57582;-34.876;138.628;2023-08-06T06:10:01;102728;;;16.89;48.94
70198;BME280;57582;-34.876;138.628;2023-08-06T06:13:01;102719;;;17.05;48.55
70198;BME280;57582;-34.876;138.628;2023-08-06T06:16:01;102727;;;17.29;48.42
70198;BME280;57582;-34.876;138.628;2023-08-06T06:19:02;102727;;;17.40;47.91
70198;BME280;57582;-34.876;138.628;2023-08-06T06:22:01;102729;;;17.27;47.59
70198;BME280;57582;-34.876;138.628;2023-08-06T06:25:01;102725;;;17.36;47.74
70198;BME280;57582;-34.876;138.628;2023-08-06T06:28:01;102721;;;17.20;47.03
70198;BME280;57582;-34.876;138.628;2023-08-06T06:31:02;102726;;;17.29;48.14
70198;BME280;57582;-34.876;138.628;2023-08-06T06:34:01;102732;;;17.35;48.04
70198;BME280;57582;-34.876;138.628;2023-08-06T06:37:01;102737;;;17.37;48.42
70198;BME280;57582;-34.876;138.628;2023-08-06T06:40:01;102747;;;17.28;48.90
70198;BME280;57582;-34.876;138.628;2023-08-06T06:43:02;102754;;;17.11;49.51
70198;BME280;57582;-34.876;138.628;2023-08-06T06:46:01;102755;;;17.05;50.01
70198;BME280;57582;-34.876;138.628;2023-08-06T06:49:01;102751;;;16.98;50.31
70198;BME280;57582;-34.876;138.628;2023-08-06T06:52:01;102756;;;16.88;50.54
70198;BME280;57582;-34.876;138.628;2023-08-06T06:55:02;102755;;;16.91;50.64
70198;BME280;57582;-34.876;138.628;2023-08-06T06:58:01;102748;;;16.93;50.72
70198;BME280;57582;-34.876;138.628;2023-08-06T07:01:01;102749;;;16.75;51.22
70198;BME280;57582;-34.876;138.628;2023-08-06T07:04:01;102766;;;16.37;52.27
70198;BME280;57582;-34.876;138.628;2023-08-06T07:07:02;102757;;;16.28;52.79
70198;BME280;57582;-34.876;138.628;2023-08-06T07:10:01;102757;;;15.97;53.90
70198;BME280;57582;-34.876;138.628;2023-08-06T07:13:01;102769;;;15.71;54.87
70198;BME280;57582;-34.876;138.628;2023-08-06T07:16:01;102775;;;15.78;54.37
70198;BME280;57582;-34.876;138.628;2023-08-06T07:19:02;102774;;;15.82;54.46
70198;BME280;57582;-34.876;138.628;2023-08-06T07:31:03;102771;;;16.49;52.83
70198;BME280;57582;-34.876;138.628;2023-08-06T07:34:01;102767;;;16.56;52.39
70198;BME280;57582;-34.876;138.628;2023-08-06T07:37:01;102770;;;16.55;52.40
70198;BME280;57582;-34.876;138.628;2023-08-06T07:40:01;102773;;;16.50;52.68
70198;BME280;57582;-34.876;138.628;2023-08-06T07:43:02;102786;;;16.45;52.82
70198;BME280;57582;-34.876;138.628;2023-08-06T07:46:01;102790;;;16.43;52.82
70198;BME280;57582;-34.876;138.628;2023-08-06T07:49:01;102798;;;16.36;52.79
70198;BME280;57582;-34.876;138.628;2023-08-06T07:52:01;102799;;;16.34;52.51
70198;BME280;57582;-34.876;138.628;2023-08-06T07:55:02;102805;;;16.27;52.81
70198;BME280;57582;-34.876;138.628;2023-08-06T07:58:01;102806;;;16.22;52.72
70198;BME280;57582;-34.876;138.628;2023-08-06T08:01:01;102805;;;15.95;53.54
70198;BME280;57582;-34.876;138.628;2023-08-06T08:04:01;102799;;;15.69;54.67
70198;BME280;57582;-34.876;138.628;2023-08-06T08:07:02;102804;;;15.50;54.79
70198;BME280;57582;-34.876;138.628;2023-08-06T08:10:01;102805;;;15.43;55.34
70198;BME280;57582;-34.876;138.628;2023-08-06T08:13:02;102799;;;15.34;56.15
70198;BME280;57582;-34.876;138.628;2023-08-06T08:16:01;102803;;;14.82;51.21
70198;BME280;57582;-34.876;138.628;2023-08-06T08:19:02;102803;;;14.63;53.21
70198;BME280;57582;-34.876;138.628;2023-08-06T08:22:01;102801;;;14.57;52.07
70198;BME280;57582;-34.876;138.628;2023-08-06T08:25:02;102808;;;13.93;53.02
70198;BME280;57582;-34.876;138.628;2023-08-06T08:28:01;102806;;;13.92;53.83
70198;BME280;57582;-34.876;138.628;2023-08-06T08:31:02;102807;;;14.11;53.88
70198;BME280;57582;-34.876;138.628;2023-08-06T08:34:01;102805;;;14.36;53.85
70198;BME280;57582;-34.876;138.628;2023-08-06T08:37:01;102813;;;14.63;53.26
70198;BME280;57582;-34.876;138.628;2023-08-06T08:40:01;102815;;;14.86;53.26
70198;BME280;57582;-34.876;138.628;2023-08-06T08:43:02;102811;;;14.95;53.16
70198;BME280;57582;-34.876;138.628;2023-08-06T08:46:01;102814;;;15.03;53.24
70198;BME280;57582;-34.876;138.628;2023-08-06T08:49:01;102819;;;15.01;55.20
70198;BME280;57582;-34.876;138.628;2023-08-06T08:52:02;102814;;;15.09;54.91
70198;BME280;57582;-34.876;138.628;2023-08-06T08:55:02;102816;;;15.13;54.91
70198;BME280;57582;-34.876;138.628;2023-08-06T08:58:01;102814;;;15.26;54.69
70198;BME280;57582;-34.876;138.628;2023-08-06T09:01:01;102820;;;15.24;54.65
70198;BME280;57582;-34.876;138.628;2023-08-06T09:04:01;102819;;;15.14;55.10
70198;BME280;57582;-34.876;138.628;2023-08-06T09:07:02;102810;;;15.12;55.21
70198;BME280;57582;-34.876;138.628;2023-08-06T09:10:02;102816;;;15.04;55.34
70198;BME280;57582;-34.876;138.628;2023-08-06T09:13:01;102814;;;15.02;55.45
70198;BME280;57582;-34.876;138.628;2023-08-06T09:16:01;102822;;;14.94;55.55
70198;BME280;57582;-34.876;138.628;2023-08-06T09:19:11;102816;;;14.87;55.79
70198;BME280;57582;-34.876;138.628;2023-08-06T09:22:01;102819;;;14.86;55.81
70198;BME280;57582;-34.876;138.628;2023-08-06T09:25:01;102818;;;14.80;56.31
70198;BME280;57582;-34.876;138.628;2023-08-06T09:28:01;102829;;;14.75;56.04
70198;BME280;57582;-34.876;138.628;2023-08-06T09:31:02;102818;;;14.69;56.18
70198;BME280;57582;-34.876;138.628;2023-08-06T09:34:01;102825;;;14.57;57.05
70198;BME280;57582;-34.876;138.628;2023-08-06T09:37:02;102826;;;14.54;56.86
70198;BME280;57582;-34.876;138.628;2023-08-06T09:40:01;102820;;;14.51;56.53
70198;BME280;57582;-34.876;138.628;2023-08-06T09:43:02;102831;;;14.38;57.43
70198;BME280;57582;-34.876;138.628;2023-08-06T09:46:01;102835;;;14.39;56.68
70198;BME280;57582;-34.876;138.628;2023-08-06T09:49:01;102823;;;14.09;56.01
70198;BME280;57582;-34.876;138.628;2023-08-06T09:52:01;102828;;;14.04;56.19
70198;BME280;57582;-34.876;138.628;2023-08-06T09:55:02;102838;;;13.74;56.80
70198;BME280;57582;-34.876;138.628;2023-08-06T09:58:01;102839;;;13.67;57.05
70198;BME280;57582;-34.876;138.628;2023-08-06T10:01:02;102843;;;13.72;56.93
70198;BME280;57582;-34.876;138.628;2023-08-06T10:04:02;102844;;;13.71;56.89
70198;BME280;57582;-34.876;138.628;2023-08-06T10:07:02;102846;;;13.74;57.07
70198;BME280;57582;-34.876;138.628;2023-08-06T10:10:02;102849;;;13.76;56.29
70198;BME280;57582;-34.876;138.628;2023-08-06T10:13:01;102850;;;13.73;56.62
70198;BME280;57582;-34.876;138.628;2023-08-06T10:16:02;102849;;;13.76;56.52
70198;BME280;57582;-34.876;138.628;2023-08-06T10:19:03;102855;;;13.80;56.73
70198;BME280;57582;-34.876;138.628;2023-08-06T10:22:13;102861;;;13.81;56.59
70198;BME280;57582;-34.876;138.628;2023-08-06T10:25:02;102858;;;13.76;56.50
70198;BME280;57582;-34.876;138.628;2023-08-06T10:28:07;102838;;;13.63;57.23
70198;BME280;57582;-34.876;138.628;2023-08-06T10:31:02;102836;;;13.49;57.39
70198;BME280;57582;-34.876;138.628;2023-08-06T10:34:01;102837;;;13.46;57.71
70198;BME280;57582;-34.876;138.628;2023-08-06T10:37:02;102840;;;13.42;58.03
70198;BME280;57582;-34.876;138.628;2023-08-06T10:40:02;102845;;;12.93;59.55
70198;BME280;57582;-34.876;138.628;2023-08-06T10:43:02;102850;;;12.30;61.92
70198;BME280;57582;-34.876;138.628;2023-08-06T10:46:02;102851;;;12.04;63.66
70198;BME280;57582;-34.876;138.628;2023-08-06T10:49:02;102856;;;12.08;64.12
70198;BME280;57582;-34.876;138.628;2023-08-06T10:52:02;102853;;;11.81;65.53
70198;BME280;57582;-34.876;138.628;2023-08-06T10:55:02;102860;;;11.47;66.81
70198;BME280;57582;-34.876;138.628;2023-08-06T10:58:02;102853;;;11.46;66.86
70198;BME280;57582;-34.876;138.628;2023-08-06T11:01:02;102856;;;11.59;66.49
70198;BME280;57582;-34.876;138.628;2023-08-06T11:04:02;102859;;;11.86;65.42
70198;BME280;57582;-34.876;138.628;2023-08-06T11:07:02;102860;;;12.09;64.31
70198;BME280;57582;-34.876;138.628;2023-08-06T11:10:03;102875;;;12.35;64.04
70198;BME280;57582;-34.876;138.628;2023-08-06T11:13:02;102868;;;12.58;62.92
70198;BME280;57582;-34.876;138.628;2023-08-06T11:16:02;102861;;;12.73;62.11
70198;BME280;57582;-34.876;138.628;2023-08-06T11:19:02;102866;;;12.82;61.81
70198;BME280;57582;-34.876;138.628;2023-08-06T11:22:02;102862;;;13.01;61.37
70198;BME280;57582;-34.876;138.628;2023-08-06T11:25:02;102871;;;13.09;60.44
70198;BME280;57582;-34.876;138.628;2023-08-06T11:28:02;102865;;;13.09;60.00
70198;BME280;57582;-34.876;138.628;2023-08-06T11:31:02;102862;;;13.04;59.61
70198;BME280;57582;-34.876;138.628;2023-08-06T11:34:02;102860;;;13.00;59.85
70198;BME280;57582;-34.876;138.628;2023-08-06T11:37:03;102861;;;12.93;59.82
70198;BME280;57582;-34.876;138.628;2023-08-06T11:40:02;102861;;;12.99;59.40
70198;BME280;57582;-34.876;138.628;2023-08-06T11:43:02;102854;;;12.99;59.75
70198;BME280;57582;-34.876;138.628;2023-08-06T11:46:02;102845;;;12.90;59.25
70198;BME280;57582;-34.876;138.628;2023-08-06T11:49:02;102850;;;12.84;59.36
70198;BME280;57582;-34.876;138.628;2023-08-06T11:52:07;102854;;;12.74;59.39
70198;BME280;57582;-34.876;138.628;2023-08-06T11:55:04;102851;;;12.77;59.70
70198;BME280;57582;-34.876;138.628;2023-08-06T11:58:03;102857;;;12.78;59.71
70198;BME280;57582;-34.876;138.628;2023-08-06T12:01:02;102854;;;12.71;59.43
70198;BME280;57582;-34.876;138.628;2023-08-06T12:04:04;102849;;;12.66;59.01
70198;BME280;57582;-34.876;138.628;2023-08-06T12:07:05;102854;;;12.61;59.35
70198;BME280;57582;-34.876;138.628;2023-08-06T12:10:02;102854;;;12.57;59.59
70198;BME280;57582;-34.876;138.628;2023-08-06T12:13:02;102857;;;12.47;59.79
70198;BME280;57582;-34.876;138.628;2023-08-06T12:16:02;102856;;;12.51;60.02
70198;BME280;57582;-34.876;138.628;2023-08-06T12:19:02;102850;;;12.43;59.49
70198;BME280;57582;-34.876;138.628;2023-08-06T12:22:02;102847;;;12.38;60.01
70198;BME280;57582;-34.876;138.628;2023-08-06T12:25:02;102846;;;12.10;62.74
70198;BME280;57582;-34.876;138.628;2023-08-06T12:28:02;102840;;;12.08;63.42
70198;BME280;57582;-34.876;138.628;2023-08-06T12:31:02;102845;;;12.05;63.34
70198;BME280;57582;-34.876;138.628;2023-08-06T12:34:02;102835;;;11.99;64.02
70198;BME280;57582;-34.876;138.628;2023-08-06T12:37:02;102827;;;11.91;64.50
70198;BME280;57582;-34.876;138.628;2023-08-06T12:40:02;102832;;;11.72;65.85
70198;BME280;57582;-34.876;138.628;2023-08-06T12:43:02;102820;;;11.78;65.50
70198;BME280;57582;-34.876;138.628;2023-08-06T12:46:02;102819;;;11.88;64.47
70198;BME280;57582;-34.876;138.628;2023-08-06T12:49:02;102826;;;11.93;63.97
70198;BME280;57582;-34.876;138.628;2023-08-06T12:52:02;102819;;;12.04;63.36
70198;BME280;57582;-34.876;138.628;2023-08-06T12:55:02;102824;;;12.05;62.53
70198;BME280;57582;-34.876;138.628;2023-08-06T12:58:02;102827;;;12.07;62.20
70198;BME280;57582;-34.876;138.628;2023-08-06T13:01:02;102821;;;12.08;61.94
70198;BME280;57582;-34.876;138.628;2023-08-06T13:04:02;102820;;;12.09;62.09
70198;BME280;57582;-34.876;138.628;2023-08-06T13:07:02;102818;;;12.05;61.90
70198;BME280;57582;-34.876;138.628;2023-08-06T13:10:02;102820;;;12.01;61.61
70198;BME280;57582;-34.876;138.628;2023-08-06T13:13:02;102820;;;12.03;61.83
70198;BME280;57582;-34.876;138.628;2023-08-06T13:16:02;102818;;;11.97;61.58
70198;BME280;57582;-34.876;138.628;2023-08-06T13:19:03;102816;;;11.94;61.75
70198;BME280;57582;-34.876;138.628;2023-08-06T13:22:02;102812;;;11.84;61.76
70198;BME280;57582;-34.876;138.628;2023-08-06T13:25:02;102812;;;11.69;64.21
70198;BME280;57582;-34.876;138.628;2023-08-06T13:28:03;102804;;;11.87;64.49
70198;BME280;57582;-34.876;138.628;2023-08-06T13:31:02;102806;;;12.14;63.32
70198;BME280;57582;-34.876;138.628;2023-08-06T13:34:02;102802;;;12.41;62.84
70198;BME280;57582;-34.876;138.628;2023-08-06T13:37:02;102799;;;12.70;62.85
70198;BME280;57582;-34.876;138.628;2023-08-06T13:40:02;102789;;;12.91;61.53
70198;BME280;57582;-34.876;138.628;2023-08-06T13:43:02;102793;;;13.04;59.24
70198;BME280;57582;-34.876;138.628;2023-08-06T13:46:02;102796;;;12.85;60.78
70198;BME280;57582;-34.876;138.628;2023-08-06T13:49:02;102792;;;12.78;62.32
70198;BME280;57582;-34.876;138.628;2023-08-06T13:52:02;102783;;;13.10;60.76
70198;BME280;57582;-34.876;138.628;2023-08-06T13:55:02;102780;;;13.10;60.64
70198;BME280;57582;-34.876;138.628;2023-08-06T13:58:02;102786;;;13.35;59.45
70198;BME280;57582;-34.876;138.628;2023-08-06T14:01:02;102770;;;13.77;58.18
70198;BME280;57582;-34.876;138.628;2023-08-06T14:04:02;102768;;;14.10;56.41
70198;BME280;57582;-34.876;138.628;2023-08-06T14:07:03;102769;;;14.29;55.47
70198;BME280;57582;-34.876;138.628;2023-08-06T14:10:02;102763;;;14.51;54.86
70198;BME280;57582;-34.876;138.628;2023-08-06T14:13:02;102747;;;14.64;53.88
70198;BME280;57582;-34.876;138.628;2023-08-06T14:16:02;102751;;;14.53;53.85
70198;BME280;57582;-34.876;138.628;2023-08-06T14:19:03;102745;;;14.39;54.22
70198;BME280;57582;-34.876;138.628;2023-08-06T14:22:02;102749;;;14.44;54.24
70198;BME280;57582;-34.876;138.628;2023-08-06T14:25:02;102748;;;14.43;53.85
70198;BME280;57582;-34.876;138.628;2023-08-06T14:28:02;102751;;;14.31;54.22
70198;BME280;57582;-34.876;138.628;2023-08-06T14:31:02;102743;;;14.39;53.66
70198;BME280;57582;-34.876;138.628;2023-08-06T14:34:02;102744;;;14.24;54.29
70198;BME280;57582;-34.876;138.628;2023-08-06T14:37:02;102750;;;14.21;54.22
70198;BME280;57582;-34.876;138.628;2023-08-06T14:40:02;102753;;;14.11;54.08
70198;BME280;57582;-34.876;138.628;2023-08-06T14:43:04;102751;;;13.99;54.35
70198;BME280;57582;-34.876;138.628;2023-08-06T14:46:02;102755;;;13.95;54.20
70198;BME280;57582;-34.876;138.628;2023-08-06T14:49:02;102758;;;13.78;55.29
70198;BME280;57582;-34.876;138.628;2023-08-06T14:52:02;102752;;;13.57;55.40
70198;BME280;57582;-34.876;138.628;2023-08-06T14:55:02;102747;;;13.36;55.92
70198;BME280;57582;-34.876;138.628;2023-08-06T14:58:02;102747;;;13.22;56.61
70198;BME280;57582;-34.876;138.628;2023-08-06T15:01:02;102743;;;13.12;56.97
70198;BME280;57582;-34.876;138.628;2023-08-06T15:04:02;102745;;;13.02;57.36
70198;BME280;57582;-34.876;138.628;2023-08-06T15:07:03;102750;;;12.87;58.04
70198;BME280;57582;-34.876;138.628;2023-08-06T15:10:04;102757;;;12.75;58.27
70198;BME280;57582;-34.876;138.628;2023-08-06T15:13:02;102746;;;12.42;59.25
70198;BME280;57582;-34.876;138.628;2023-08-06T15:16:02;102753;;;12.14;60.40
70198;BME280;57582;-34.876;138.628;2023-08-06T15:19:02;102744;;;11.61;62.14
70198;BME280;57582;-34.876;138.628;2023-08-06T15:22:02;102754;;;11.34;62.83
70198;BME280;57582;-34.876;138.628;2023-08-06T15:25:02;102745;;;11.43;62.54
70198;BME280;57582;-34.876;138.628;2023-08-06T15:28:02;102750;;;11.55;62.28
70198;BME280;57582;-34.876;138.628;2023-08-06T15:31:02;102739;;;11.38;62.92
70198;BME280;57582;-34.876;138.628;2023-08-06T15:34:02;102734;;;11.18;63.50
70198;BME280;57582;-34.876;138.628;2023-08-06T15:37:02;102730;;;11.25;63.68
70198;BME280;57582;-34.876;138.628;2023-08-06T15:40:02;102732;;;11.18;64.00
70198;BME280;57582;-34.876;138.628;2023-08-06T15:43:02;102731;;;10.68;65.47
70198;BME280;57582;-34.876;138.628;2023-08-06T15:46:02;102727;;;10.40;66.70
70198;BME280;57582;-34.876;138.628;2023-08-06T15:49:02;102718;;;10.61;66.28
70198;BME280;57582;-34.876;138.628;2023-08-06T15:52:02;102727;;;10.31;66.69
70198;BME280;57582;-34.876;138.628;2023-08-06T15:55:03;102725;;;10.24;67.44
70198;BME280;57582;-34.876;138.628;2023-08-06T15:58:02;102732;;;9.90;68.87
70198;BME280;57582;-34.876;138.628;2023-08-06T16:01:02;102729;;;9.81;69.72
70198;BME280;57582;-34.876;138.628;2023-08-06T16:04:02;102720;;;9.54;70.67
70198;BME280;57582;-34.876;138.628;2023-08-06T16:07:03;102728;;;9.54;70.87
70198;BME280;57582;-34.876;138.628;2023-08-06T16:10:02;102728;;;9.43;71.41
70198;BME280;57582;-34.876;138.628;2023-08-06T16:13:02;102727;;;9.35;71.85